Time;durP1;ratioP1;P1;durP2;ratioP2;P2;SDS_P1;SDS_P2;PMS_P1;PMS_P2;Temp;Humidity;BMP_temperature;BMP_pressure;BME280_temperature;BME280_humidity;BME280_pressure;Samples;Min_cycle;Max_cycle;Signal;HPM_P1;HPM_P2
2022/12/26 00:00:35;;;;;;;6.00;2.97;;;10.90;99.90;;;;;;5055176;28;20203;-77
2022/12/26 00:03:00;;;;;;;8.23;3.03;;;10.80;99.90;;;;;;5055121;28;20174;-77
2022/12/26 00:05:26;;;;;;;4.87;3.33;;;10.80;99.90;;;;;;5073435;28;20203;-77
2022/12/26 00:07:51;;;;;;;5.20;3.50;;;10.80;99.90;;;;;;5073224;28;20175;-77
2022/12/26 00:10:17;;;;;;;4.90;3.77;;;10.90;99.90;;;;;;5055106;28;20198;-77
2022/12/26 00:12:42;;;;;;;5.30;3.57;;;10.90;99.90;;;;;;5073594;28;20171;-77
2022/12/26 00:15:08;;;;;;;5.50;4.33;;;10.90;99.90;;;;;;5073225;28;20178;-78
2022/12/26 00:17:34;;;;;;;6.63;4.40;;;10.90;99.90;;;;;;5073153;28;20182;-77
2022/12/26 00:19:59;;;;;;;6.07;4.13;;;11.00;99.90;;;;;;5073150;28;20195;-77
2022/12/26 00:22:25;;;;;;;6.83;4.50;;;11.00;99.90;;;;;;5073241;28;20227;-77
2022/12/26 00:24:50;;;;;;;6.50;4.30;;;11.00;99.90;;;;;;5055750;28;20652;-77
2022/12/26 00:27:16;;;;;;;5.83;3.97;;;11.00;99.90;;;;;;5073899;28;20248;-77
2022/12/26 00:29:41;;;;;;;4.27;3.13;;;11.00;99.90;;;;;;5055184;28;20193;-77
2022/12/26 00:32:07;;;;;;;3.30;2.27;;;11.00;99.90;;;;;;5073413;28;20577;-77
2022/12/26 00:34:32;;;;;;;2.83;2.40;;;10.90;99.90;;;;;;5073457;28;20167;-77
2022/12/26 00:36:58;;;;;;;3.43;2.70;;;11.00;99.90;;;;;;5073535;28;20182;-77
2022/12/26 00:39:23;;;;;;;4.17;2.30;;;11.00;99.90;;;;;;5055133;28;20197;-77
2022/12/26 00:41:49;;;;;;;2.67;2.10;;;10.90;99.90;;;;;;5055074;28;20558;-77
2022/12/26 00:44:14;;;;;;;3.27;2.20;;;10.90;99.90;;;;;;5054942;28;20222;-77
2022/12/26 00:46:40;;;;;;;2.47;1.97;;;10.90;99.90;;;;;;5072975;28;20226;-77
2022/12/26 00:49:05;;;;;;;3.37;2.50;;;10.90;99.90;;;;;;5072791;28;20239;-77
2022/12/26 00:51:31;;;;;;;4.43;2.30;;;10.80;99.90;;;;;;5072839;28;20236;-77
2022/12/26 00:53:56;;;;;;;4.67;2.73;;;10.80;99.90;;;;;;5072779;28;20167;-77
2022/12/26 00:56:22;;;;;;;3.07;2.33;;;10.80;99.90;;;;;;5072720;28;20167;-77
2022/12/26 00:58:47;;;;;;;5.63;2.87;;;10.80;99.90;;;;;;5072526;28;20210;-77
2022/12/26 01:01:22;;;;;;;3.83;3.23;;;10.80;99.90;;;;;;5054992;28;20648;-77
2022/12/26 01:03:48;;;;;;;5.33;3.40;;;10.70;99.90;;;;;;5073133;28;20166;-77
2022/12/26 01:06:14;;;;;;;3.67;3.27;;;10.70;99.90;;;;;;5054722;28;20199;-77
2022/12/26 01:08:41;;;;;;;3.40;2.70;;;10.70;99.90;;;;;;5054642;28;20190;-77
2022/12/26 01:11:12;;;;;;;2.50;2.00;;;10.70;99.90;;;;;;5072615;28;20536;-77
2022/12/26 01:13:38;;;;;;;2.33;1.87;;;10.70;99.90;;;;;;5054664;28;20232;-77
2022/12/26 01:16:05;;;;;;;1.90;1.70;;;10.70;99.90;;;;;;5057298;28;20592;-77
2022/12/26 01:18:31;;;;;;;2.03;1.53;;;10.70;99.90;;;;;;5058458;28;20181;-77
2022/12/26 01:21:01;;;;;;;1.93;1.70;;;10.70;99.90;;;;;;5076652;28;20179;-77
2022/12/26 01:23:27;;;;;;;5.60;1.60;;;10.70;99.90;;;;;;5076317;28;20628;-77
2022/12/26 01:25:53;;;;;;;1.93;1.70;;;10.70;99.90;;;;;;5076478;28;20213;-77
2022/12/26 01:28:19;;;;;;;4.70;1.87;;;10.70;99.90;;;;;;5076209;28;20178;-78
2022/12/26 01:30:44;;;;;;;2.03;1.73;;;10.70;99.90;;;;;;5058198;28;20217;-77
2022/12/26 01:33:10;;;;;;;3.50;1.83;;;10.70;99.90;;;;;;5058195;28;20220;-77
2022/12/26 01:35:35;;;;;;;3.93;1.80;;;10.70;99.90;;;;;;5076186;28;20258;-77
2022/12/26 01:38:01;;;;;;;3.17;2.10;;;10.70;99.90;;;;;;5076158;28;20163;-77
2022/12/26 01:40:26;;;;;;;3.17;1.70;;;10.60;99.90;;;;;;5075957;28;20198;-78
2022/12/26 01:42:52;;;;;;;2.20;2.00;;;10.60;99.90;;;;;;5075906;28;20177;-77
2022/12/26 01:45:38;;;;;;;4.23;1.60;;;10.60;99.90;;;;;;5075883;28;20231;-77
2022/12/26 01:48:19;;;;;;;1.40;1.30;;;10.60;99.90;;;;;;5075943;28;20175;-77
2022/12/26 01:50:57;;;;;;;2.10;1.70;;;10.50;99.90;;;;;;5075737;28;20174;-77
2022/12/26 01:53:31;;;;;;;1.93;1.40;;;10.60;99.90;;;;;;5058084;28;20532;-77
2022/12/26 01:56:20;;;;;;;1.70;1.60;;;10.50;99.90;;;;;;5075821;28;20609;-77
2022/12/26 01:58:57;;;;;;;4.30;1.90;;;10.60;99.90;;;;;;5075564;28;20248;-77
2022/12/26 02:01:28;;;;;;;1.90;1.70;;;10.50;99.90;;;;;;5075908;28;20163;-77
2022/12/26 02:06:40;;;;;;;2.27;1.77;;;10.50;99.90;;;;;;5075903;28;20682;-77
2022/12/26 02:09:06;;;;;;;1.97;1.63;;;10.50;99.90;;;;;;5075470;28;20190;-77
2022/12/26 02:11:40;;;;;;;3.13;1.67;;;10.50;99.90;;;;;;5075444;28;20167;-77
2022/12/26 02:14:06;;;;;;;2.10;1.70;;;10.50;99.90;;;;;;5057496;28;20163;-77
2022/12/26 02:16:34;;;;;;;1.97;1.77;;;10.50;99.90;;;;;;5075310;28;20174;-77
2022/12/26 02:18:59;;;;;;;1.80;1.40;;;10.60;99.90;;;;;;5057315;28;20203;-78
2022/12/26 02:21:45;;;;;;;1.90;1.70;;;10.60;99.90;;;;;;5075349;28;20640;-77
2022/12/26 02:24:34;;;;;;;2.47;1.63;;;10.50;99.90;;;;;;5057380;28;20159;-77
2022/12/26 02:27:20;;;;;;;2.43;1.60;;;10.50;99.90;;;;;;5075198;28;20731;-77
2022/12/26 02:30:06;;;;;;;1.90;1.70;;;10.50;99.90;;;;;;5057071;28;20277;-77
2022/12/26 02:32:47;;;;;;;2.03;1.83;;;10.60;99.90;;;;;;5075036;28;20248;-78
2022/12/26 02:35:40;;;;;;;1.90;1.67;;;10.50;99.90;;;;;;5057049;28;20173;-77
2022/12/26 02:38:44;;;;;;;1.67;1.47;;;10.60;99.90;;;;;;5057082;28;20259;-77
2022/12/26 02:41:43;;;;;;;2.20;1.97;;;10.60;99.90;;;;;;5075324;28;20162;-77
2022/12/26 02:47:28;;;;;;;2.47;1.80;;;10.60;99.90;;;;;;5074982;28;20193;-77
2022/12/26 03:13:26;;;;;;;5.33;3.57;;;10.60;99.90;;;;;;5074326;28;20535;-77
2022/12/26 03:18:54;;;;;;;5.53;3.47;;;10.60;99.90;;;;;;5074410;28;20202;-77
2022/12/26 03:21:24;;;;;;;4.90;4.13;;;10.60;99.90;;;;;;5074156;28;20233;-77
2022/12/26 03:23:52;;;;;;;4.47;4.03;;;10.50;99.90;;;;;;5074571;28;20155;-77
2022/12/26 03:26:39;;;;;;;5.63;4.53;;;10.50;99.90;;;;;;5074078;28;20214;-77
2022/12/26 03:31:53;;;;;;;5.50;3.97;;;10.50;99.90;;;;;;5073911;28;20540;-77
2022/12/26 03:34:19;;;;;;;4.53;3.80;;;10.40;99.90;;;;;;5073821;28;20221;-77
2022/12/26 03:37:18;;;;;;;6.73;4.53;;;10.40;99.90;;;;;;5055902;28;20175;-78
2022/12/26 04:41:34;;;;;;;4.83;4.10;;;10.20;99.90;;;;;;5073820;28;20158;-77
2022/12/26 04:44:08;;;;;;;5.83;4.10;;;10.00;99.90;;;;;;5073343;28;20181;-77
2022/12/26 04:46:38;;;;;;;8.60;3.73;;;10.00;99.90;;;;;;5072827;28;20193;-77
2022/12/26 04:51:51;;;;;;;3.40;3.00;;;9.90;99.90;;;;;;5077300;28;20178;-77
2022/12/26 04:54:17;;;;;;;6.63;3.40;;;9.90;99.90;;;;;;5077593;28;20632;-77
2022/12/26 04:56:43;;;;;;;4.50;3.47;;;9.90;99.90;;;;;;5077287;28;20564;-78
2022/12/26 04:59:08;;;;;;;5.40;3.33;;;9.90;99.90;;;;;;5077024;28;20683;-77
2022/12/26 05:09:52;;;;;;;4.37;3.60;;;9.90;99.90;;;;;;5077119;28;20255;-77
2022/12/26 05:12:17;;;;;;;3.77;2.97;;;9.90;99.90;;;;;;5076566;28;20658;-77
2022/12/26 05:14:43;;;;;;;7.37;3.37;;;9.90;99.90;;;;;;5058652;28;20167;-77
2022/12/26 05:30:58;;;;;;;4.00;3.10;;;9.80;99.90;;;;;;5076838;28;20167;-77
2022/12/26 05:36:09;;;;;;;4.07;3.00;;;9.80;99.90;;;;;;5076510;28;20194;-77
2022/12/26 05:38:35;;;;;;;7.17;3.30;;;9.80;99.90;;;;;;5076077;28;20670;-78
2022/12/26 05:41:01;;;;;;;4.70;3.40;;;9.80;99.90;;;;;;5076613;28;20224;-78
2022/12/26 05:43:27;;;;;;;6.17;3.47;;;9.80;99.90;;;;;;5058217;28;20175;-78
2022/12/26 05:45:52;;;;;;;4.17;3.37;;;9.80;99.90;;;;;;5076062;28;20198;-77
2022/12/26 05:48:18;;;;;;;4.43;3.23;;;9.80;99.90;;;;;;5076190;28;20171;-77
2022/12/26 05:50:43;;;;;;;6.53;3.40;;;9.80;99.90;;;;;;5075811;28;20175;-77
2022/12/26 05:53:09;;;;;;;4.03;3.40;;;9.80;99.90;;;;;;5075855;28;20264;-77
2022/12/26 05:55:35;;;;;;;4.57;3.30;;;9.80;99.90;;;;;;5075858;28;20178;-77
2022/12/26 05:58:01;;;;;;;4.13;3.70;;;9.70;99.90;;;;;;5057705;28;20348;-77
2022/12/26 06:00:28;;;;;;;5.30;3.87;;;9.80;99.90;;;;;;5075232;28;20195;-78
2022/12/26 06:02:54;;;;;;;6.73;3.30;;;9.80;99.90;;;;;;5075746;28;20258;-77
2022/12/26 06:05:20;;;;;;;5.97;4.00;;;9.80;99.90;;;;;;5057668;28;20171;-77
2022/12/26 06:07:46;;;;;;;3.83;3.43;;;9.80;99.90;;;;;;5075808;28;20275;-78
2022/12/26 06:10:12;;;;;;;4.53;3.80;;;9.80;99.90;;;;;;5075585;28;20230;-77
2022/12/26 06:12:37;;;;;;;4.27;3.63;;;9.70;99.90;;;;;;5075734;28;20186;-77
2022/12/26 06:15:03;;;;;;;4.53;3.43;;;9.70;99.90;;;;;;5075239;28;20174;-77
2022/12/26 06:17:29;;;;;;;4.93;3.67;;;9.70;99.90;;;;;;5075316;28;20640;-77
2022/12/26 06:19:54;;;;;;;5.43;3.07;;;9.60;99.90;;;;;;5057445;28;20195;-77
2022/12/26 06:22:20;;;;;;;3.80;3.20;;;9.60;99.90;;;;;;5074912;28;20167;-78
2022/12/26 06:24:46;;;;;;;5.07;3.10;;;9.70;99.90;;;;;;5074584;28;20644;-77
2022/12/26 06:27:11;;;;;;;6.07;3.27;;;9.60;99.90;;;;;;5057244;28;20207;-77
2022/12/26 06:29:37;;;;;;;4.47;3.50;;;9.60;99.90;;;;;;5057101;28;20191;-77
2022/12/26 06:32:03;;;;;;;5.20;3.33;;;9.60;99.90;;;;;;5057153;28;20175;-77
2022/12/26 06:34:29;;;;;;;5.13;4.10;;;9.60;99.90;;;;;;5057065;28;20185;-76
2022/12/26 06:36:54;;;;;;;6.93;3.60;;;9.60;99.90;;;;;;5075028;28;20614;-77
2022/12/26 06:39:21;;;;;;;4.97;3.60;;;9.50;99.90;;;;;;5057067;28;20273;-77
2022/12/26 06:41:46;;;;;;;4.03;3.50;;;9.50;99.90;;;;;;5074969;28;20557;-77
2022/12/26 06:44:12;;;;;;;4.57;3.73;;;9.50;99.90;;;;;;5074879;28;20174;-78
2022/12/26 06:46:38;;;;;;;3.83;3.23;;;9.50;99.90;;;;;;5056722;28;20198;-78
2022/12/26 06:49:05;;;;;;;4.20;3.60;;;9.50;99.90;;;;;;5074630;28;20278;-77
2022/12/26 06:51:31;;;;;;;5.00;3.33;;;9.50;99.90;;;;;;5056657;28;20660;-77
2022/12/26 06:54:01;;;;;;;6.23;4.10;;;9.50;99.90;;;;;;5074861;28;20236;-77
2022/12/26 06:56:27;;;;;;;4.87;3.70;;;9.50;99.90;;;;;;5074586;28;20262;-77
2022/12/26 06:58:54;;;;;;;4.13;3.50;;;9.60;99.90;;;;;;5056490;28;20285;-77
2022/12/26 07:01:21;;;;;;;5.10;3.27;;;9.60;99.90;;;;;;5074464;28;20171;-77
2022/12/26 07:03:47;;;;;;;5.83;3.40;;;9.60;99.90;;;;;;5074650;28;20175;-77
2022/12/26 07:06:22;;;;;;;4.87;3.50;;;9.60;99.90;;;;;;5056404;28;20198;-77
2022/12/26 07:08:48;;;;;;;4.00;3.60;;;9.60;99.90;;;;;;5056316;28;20194;-77
2022/12/26 07:11:20;;;;;;;4.67;3.73;;;9.60;99.90;;;;;;5074258;28;20518;-77
2022/12/26 07:13:45;;;;;;;4.77;3.60;;;9.50;99.90;;;;;;5073593;28;20574;-77
2022/12/26 07:16:12;;;;;;;5.80;3.50;;;9.60;99.90;;;;;;5074155;28;20175;-77
2022/12/26 07:18:37;;;;;;;4.43;3.60;;;9.60;99.90;;;;;;5073928;28;20700;-77
2022/12/26 07:21:11;;;;;;;8.43;3.73;;;9.60;99.90;;;;;;5074041;28;20171;-76
2022/12/26 07:23:37;;;;;;;4.43;3.80;;;9.60;99.90;;;;;;5074061;28;20246;-77
2022/12/26 07:26:03;;;;;;;4.20;3.57;;;9.60;99.90;;;;;;5074166;28;20286;-77
2022/12/26 07:28:29;;;;;;;4.23;3.43;;;9.50;99.90;;;;;;5055890;28;20171;-77
2022/12/26 07:30:56;;;;;;;6.70;3.60;;;9.60;99.90;;;;;;5073861;28;20246;-77
2022/12/26 07:33:22;;;;;;;5.60;3.43;;;9.60;99.90;;;;;;5074371;28;20246;-77
2022/12/26 07:35:47;;;;;;;3.93;3.53;;;9.60;99.90;;;;;;5073783;28;20213;-77
2022/12/26 07:38:13;;;;;;;6.53;3.63;;;9.60;99.90;;;;;;5073793;28;20701;-77
2022/12/26 07:40:38;;;;;;;6.37;3.80;;;9.60;99.90;;;;;;5073860;28;20198;-77
2022/12/26 07:43:04;;;;;;;5.13;3.20;;;9.60;99.90;;;;;;5055702;28;20178;-77
2022/12/26 07:45:29;;;;;;;4.90;3.10;;;9.60;99.90;;;;;;5073481;28;20179;-77
2022/12/26 07:47:56;;;;;;;4.93;3.23;;;9.70;99.90;;;;;;5073793;28;20171;-77
2022/12/26 07:50:23;;;;;;;3.63;3.07;;;9.70;99.90;;;;;;5055479;28;20195;-77
2022/12/26 07:52:49;;;;;;;4.40;2.77;;;9.70;99.90;;;;;;5073436;28;20258;-77
2022/12/26 07:55:15;;;;;;;3.73;2.77;;;9.70;99.90;;;;;;5055513;28;20271;-77
2022/12/26 07:57:40;;;;;;;3.80;3.10;;;9.70;99.90;;;;;;5055511;28;20245;-77
2022/12/26 08:00:07;;;;;;;4.63;2.80;;;9.80;99.90;;;;;;5055376;28;20297;-77
2022/12/26 08:02:32;;;;;;;3.57;2.53;;;9.80;99.90;;;;;;5073281;28;20175;-77
2022/12/26 08:04:58;;;;;;;3.93;2.53;;;9.80;99.90;;;;;;5055340;28;20244;-77
2022/12/26 08:07:23;;;;;;;7.03;2.63;;;9.80;99.90;;;;;;5073690;28;20202;-77
2022/12/26 08:09:49;;;;;;;2.47;2.13;;;9.80;99.90;;;;;;5073179;28;20198;-77
2022/12/26 08:12:15;;;;;;;3.80;2.47;;;9.90;99.90;;;;;;5073466;28;20167;-77
2022/12/26 08:14:40;;;;;;;2.40;2.20;;;9.90;99.90;;;;;;5073100;28;20175;-77
2022/12/26 08:17:06;;;;;;;2.90;2.33;;;9.90;99.90;;;;;;5055186;28;20636;-77
2022/12/26 08:19:32;;;;;;;5.83;1.90;;;9.90;99.90;;;;;;5055077;28;20195;-77
2022/12/26 08:21:57;;;;;;;2.03;1.90;;;9.90;99.90;;;;;;5073042;28;20558;-77
2022/12/26 08:24:23;;;;;;;3.97;2.20;;;9.90;99.90;;;;;;5072859;28;20643;-77
2022/12/26 08:26:49;;;;;;;3.30;1.80;;;9.90;99.90;;;;;;5072876;28;20671;-77
2022/12/26 08:29:14;;;;;;;3.10;1.70;;;9.90;99.90;;;;;;5072862;28;20242;-77
2022/12/26 08:31:40;;;;;;;1.93;1.73;;;9.90;99.90;;;;;;5072913;28;20178;-77
2022/12/26 08:34:05;;;;;;;2.07;1.83;;;9.90;99.90;;;;;;5072931;28;20182;-76
2022/12/26 08:36:31;;;;;;;3.77;1.70;;;9.90;99.90;;;;;;5073119;28;20185;-77
2022/12/26 08:38:57;;;;;;;3.13;1.83;;;9.90;99.90;;;;;;5072744;28;20686;-77
2022/12/26 08:41:23;;;;;;;3.30;1.60;;;9.80;99.90;;;;;;5073113;28;20167;-77
2022/12/26 08:43:50;;;;;;;1.93;1.40;;;9.90;99.90;;;;;;5072750;28;20685;-77
2022/12/26 08:46:18;;;;;;;2.77;1.20;;;9.90;99.90;;;;;;5073288;28;20194;-77
2022/12/26 08:48:44;;;;;;;1.93;1.30;;;9.90;99.90;;;;;;5054735;28;20201;-77
2022/12/26 08:51:18;;;;;;;1.67;1.33;;;9.90;99.90;;;;;;5072804;28;20171;-77
2022/12/26 08:53:45;;;;;;;5.13;1.37;;;9.90;99.90;;;;;;5072989;28;20242;-77
2022/12/26 08:56:13;;;;;;;6.57;1.23;;;9.90;99.90;;;;;;5072959;28;20182;-77
2022/12/26 08:58:39;;;;;;;1.77;1.00;;;9.90;99.90;;;;;;5072778;28;20230;-77
2022/12/26 09:01:10;;;;;;;5.23;1.43;;;9.90;99.90;;;;;;5073073;28;20546;-77
2022/12/26 09:03:36;;;;;;;1.93;1.70;;;9.90;99.90;;;;;;5055273;28;20170;-77
2022/12/26 09:06:02;;;;;;;2.50;1.30;;;9.90;99.90;;;;;;5072670;28;20573;-77
2022/12/26 09:08:29;;;;;;;1.80;1.10;;;9.90;99.90;;;;;;5072760;28;20167;-77
2022/12/26 09:11:00;;;;;;;5.20;1.27;;;9.90;99.90;;;;;;5072528;28;20171;-77
2022/12/26 09:13:26;;;;;;;0.73;0.73;;;9.90;99.90;;;;;;5072782;28;20155;-77
2022/12/26 09:15:51;;;;;;;1.03;0.93;;;9.90;99.90;;;;;;5072486;28;20201;-77
2022/12/26 09:18:17;;;;;;;1.73;0.87;;;9.90;99.90;;;;;;5072390;28;20183;-78
2022/12/26 09:20:42;;;;;;;3.30;1.10;;;9.90;99.90;;;;;;5072753;28;20175;-77
2022/12/26 09:23:09;;;;;;;3.43;1.00;;;10.00;99.90;;;;;;5054488;28;20185;-77
2022/12/26 09:25:35;;;;;;;2.20;0.90;;;10.00;99.90;;;;;;5072326;28;20523;-77
2022/12/26 09:28:01;;;;;;;2.90;1.00;;;10.00;99.90;;;;;;5072416;28;20172;-77
2022/12/26 09:30:26;;;;;;;2.40;1.20;;;9.90;99.90;;;;;;5054420;28;20195;-77
2022/12/26 09:32:52;;;;;;;1.80;0.80;;;9.90;99.90;;;;;;5072355;28;20602;-77
2022/12/26 09:35:18;;;;;;;2.27;1.03;;;10.00;99.90;;;;;;5072355;28;20172;-77
2022/12/26 09:37:44;;;;;;;2.30;1.00;;;9.90;99.90;;;;;;5058105;28;20273;-77
2022/12/26 09:40:22;;;;;;;1.63;0.80;;;9.90;99.90;;;;;;5076021;28;20269;-77
2022/12/26 09:43:22;;;;;;;2.13;1.20;;;9.90;99.90;;;;;;5058197;28;20167;-77
2022/12/26 09:45:58;;;;;;;3.60;1.20;;;9.90;99.90;;;;;;5075865;28;20681;-77
2022/12/26 09:48:33;;;;;;;2.70;0.87;;;9.90;99.90;;;;;;5076167;28;20158;-77
2022/12/26 09:50:59;;;;;;;3.57;1.13;;;10.00;99.90;;;;;;5057942;28;20300;-77
2022/12/26 09:53:37;;;;;;;2.27;1.00;;;10.00;99.90;;;;;;5075798;28;20203;-77
2022/12/26 09:56:06;;;;;;;2.00;1.00;;;10.00;99.90;;;;;;5057789;28;20185;-77
2022/12/26 09:58:46;;;;;;;2.20;1.00;;;10.00;99.90;;;;;;5075484;28;20198;-78
2022/12/26 10:01:11;;;;;;;1.10;0.90;;;10.10;99.90;;;;;;5057925;28;20198;-77
2022/12/26 10:03:41;;;;;;;1.60;0.80;;;10.10;99.90;;;;;;5076008;28;20182;-77
2022/12/26 10:06:18;;;;;;;5.80;1.00;;;10.20;99.90;;;;;;5075855;28;20286;-77
2022/12/26 10:09:05;;;;;;;2.07;0.70;;;10.20;99.90;;;;;;5057608;28;20613;-77
2022/12/26 10:11:52;;;;;;;2.17;0.97;;;10.20;99.90;;;;;;5075665;28;20159;-77
2022/12/26 10:14:35;;;;;;;3.10;1.03;;;10.20;99.90;;;;;;5075527;28;20250;-77
2022/12/26 10:17:16;;;;;;;1.43;0.67;;;10.20;99.90;;;;;;5057583;28;20178;-77
2022/12/26 10:19:49;;;;;;;3.70;1.03;;;10.20;99.90;;;;;;5075845;28;20213;-77
2022/12/26 10:22:43;;;;;;;2.60;1.00;;;10.30;99.90;;;;;;5057560;28;20171;-78
2022/12/26 10:25:24;;;;;;;0.90;0.80;;;10.30;99.90;;;;;;5030118;28;20202;-77
2022/12/26 10:27:50;;;;;;;2.37;0.80;;;10.40;99.90;;;;;;5075634;28;20648;-77
2022/12/26 10:30:26;;;;;;;3.43;1.20;;;10.50;99.90;;;;;;5075158;28;20277;-77
2022/12/26 10:33:02;;;;;;;4.00;0.90;;;10.50;99.90;;;;;;5075494;28;20220;-78
2022/12/26 10:35:34;;;;;;;2.30;0.93;;;10.50;99.90;;;;;;5075123;28;20577;-77
2022/12/26 10:38:14;;;;;;;2.03;0.80;;;10.50;99.90;;;;;;5057038;28;20206;-77
2022/12/26 10:40:45;;;;;;;2.37;0.87;;;10.50;99.90;;;;;;5074991;28;20595;-77
2022/12/26 10:43:27;;;;;;;4.87;1.03;;;10.50;99.90;;;;;;5075353;28;20644;-77
2022/12/26 10:45:59;;;;;;;4.50;1.00;;;10.60;99.90;;;;;;5056883;28;20194;-78
2022/12/26 10:48:27;;;;;;;4.90;1.13;;;10.60;99.90;;;;;;5056888;28;20163;-78
2022/12/26 10:50:53;;;;;;;0.80;0.73;;;10.60;99.90;;;;;;5075306;28;20647;-77
2022/12/26 10:53:19;;;;;;;1.50;0.80;;;10.60;99.90;;;;;;5056861;28;20217;-77
2022/12/26 10:55:45;;;;;;;1.30;0.80;;;10.70;99.90;;;;;;5074774;28;20203;-77
2022/12/26 10:58:38;;;;;;;0.70;0.70;;;10.80;99.90;;;;;;5074773;28;20555;-77
2022/12/26 11:01:29;;;;;;;1.60;0.90;;;10.80;99.90;;;;;;5074372;28;20195;-77
2022/12/26 11:03:56;;;;;;;3.07;0.90;;;10.80;99.90;;;;;;5056766;28;20179;-77
2022/12/26 11:06:31;;;;;;;2.90;1.00;;;11.00;99.90;;;;;;5074383;28;20195;-78
2022/12/26 11:08:57;;;;;;;6.53;1.23;;;11.10;99.90;;;;;;5074568;28;20190;-77
2022/12/26 11:11:53;;;;;;;1.93;0.70;;;11.10;99.90;;;;;;5056431;28;20182;-77
2022/12/26 11:14:40;;;;;;;2.10;0.77;;;11.10;99.90;;;;;;5056431;28;20179;-77
2022/12/26 11:17:11;;;;;;;2.87;0.80;;;11.20;99.90;;;;;;5056383;28;20196;-77
2022/12/26 11:19:40;;;;;;;4.37;0.90;;;11.40;99.90;;;;;;5074402;28;20636;-78
2022/12/26 11:22:27;;;;;;;4.23;0.67;;;11.40;99.90;;;;;;5056380;28;20652;-77
2022/12/26 11:25:01;;;;;;;4.40;0.77;;;11.40;99.90;;;;;;5056402;28;20694;-77
2022/12/26 11:27:27;;;;;;;1.50;0.60;;;11.40;99.90;;;;;;5074092;28;20187;-77
2022/12/26 11:30:20;;;;;;;4.23;1.30;;;11.40;99.90;;;;;;5074108;28;20698;-77
2022/12/26 11:33:20;;;;;;;1.83;0.70;;;11.30;99.90;;;;;;5074034;28;20250;-78
2022/12/26 11:35:53;;;;;;;2.80;0.60;;;11.30;99.90;;;;;;5019053;28;20193;-78
2022/12/26 11:38:35;;;;;;;2.40;0.60;;;11.30;99.90;;;;;;5073837;28;20174;-77
2022/12/26 11:43:51;;;;;;;1.63;0.80;;;11.20;99.90;;;;;;5074538;28;20260;-77
2022/12/26 11:46:17;;;;;;;2.37;0.70;;;11.20;99.90;;;;;;5055835;28;20813;-77
2022/12/26 11:48:49;;;;;;;4.70;0.80;;;11.20;99.90;;;;;;5073634;28;20190;-77
2022/12/26 11:51:14;;;;;;;2.87;0.80;;;11.20;99.90;;;;;;5055943;28;20171;-77
2022/12/26 11:53:40;;;;;;;1.13;0.60;;;11.10;99.90;;;;;;5074053;28;20167;-77
2022/12/26 11:56:06;;;;;;;4.63;0.83;;;11.10;99.90;;;;;;5056917;28;20181;-77
2022/12/26 11:58:32;;;;;;;5.30;1.07;;;11.20;99.90;;;;;;5075039;28;20218;-78
2022/12/26 12:00:58;;;;;;;2.30;0.60;;;11.20;99.90;;;;;;5074580;28;20175;-77
2022/12/26 12:03:31;;;;;;;5.07;0.90;;;11.10;99.90;;;;;;5073694;28;20170;-77
2022/12/26 12:06:10;;;;;;;4.10;1.00;;;11.20;99.90;;;;;;5073297;28;20190;-77
2022/12/26 12:08:45;;;;;;;5.00;1.13;;;11.20;99.90;;;;;;5073201;28;20181;-77
2022/12/26 12:11:32;;;;;;;2.57;0.60;;;11.20;99.90;;;;;;5073201;28;20636;-77
2022/12/26 12:14:28;;;;;;;2.00;0.77;;;11.20;99.90;;;;;;5073207;28;20244;-77
2022/12/26 12:17:02;;;;;;;2.90;0.80;;;11.30;99.90;;;;;;5031733;28;20214;-77
2022/12/26 12:20:03;;;;;;;1.93;0.90;;;11.20;99.90;;;;;;5073064;28;20549;-77
2022/12/26 12:23:01;;;;;;;1.00;0.70;;;11.20;99.90;;;;;;5073295;28;20154;-77
2022/12/26 12:25:58;;;;;;;1.77;0.80;;;11.20;99.90;;;;;;5073768;28;20269;-77
2022/12/26 12:28:45;;;;;;;5.87;1.10;;;11.20;99.90;;;;;;5055494;28;20182;-78
2022/12/26 12:31:32;;;;;;;2.60;0.87;;;11.20;99.90;;;;;;5073505;28;20162;-77
2022/12/26 12:34:14;;;;;;;6.17;1.10;;;11.10;99.90;;;;;;5055253;28;20174;-77
2022/12/26 12:37:01;;;;;;;4.20;1.33;;;11.10;99.90;;;;;;5055134;28;20175;-77
2022/12/26 12:39:58;;;;;;;2.20;1.00;;;11.10;99.90;;;;;;5072829;28;20621;-77
2022/12/26 12:42:41;;;;;;;3.50;1.13;;;11.10;99.90;;;;;;5054855;28;20183;-77
2022/12/26 12:45:25;;;;;;;1.30;0.80;;;11.10;99.90;;;;;;5054883;28;20262;-77
2022/12/26 12:48:06;;;;;;;3.23;1.20;;;10.90;99.90;;;;;;5054807;28;20229;-77
2022/12/26 12:50:54;;;;;;;3.33;1.20;;;10.70;99.90;;;;;;5072759;28;20237;-77
2022/12/26 12:53:47;;;;;;;3.73;1.50;;;10.60;99.90;;;;;;5072708;28;20647;-76
2022/12/26 12:56:26;;;;;;;3.37;0.90;;;10.40;99.90;;;;;;5054804;28;20178;-77
2022/12/26 12:59:01;;;;;;;2.70;1.13;;;10.30;99.90;;;;;;5072545;28;20202;-77
2022/12/26 13:01:38;;;;;;;4.73;0.70;;;10.20;99.90;;;;;;5072997;28;20205;-77
2022/12/26 13:04:18;;;;;;;3.60;0.87;;;10.20;99.90;;;;;;5072662;28;20161;-77
2022/12/26 13:06:55;;;;;;;2.37;0.80;;;10.10;99.90;;;;;;5072860;28;20190;-77
2022/12/26 13:09:33;;;;;;;1.80;0.70;;;10.10;99.90;;;;;;5072647;28;20198;-77
2022/12/26 13:12:08;;;;;;;3.80;0.73;;;10.00;99.90;;;;;;5075477;28;20242;-77
2022/12/26 13:14:42;;;;;;;2.47;1.00;;;9.90;99.90;;;;;;5058501;28;20666;-77
2022/12/26 13:17:18;;;;;;;3.33;0.73;;;9.80;99.90;;;;;;5058619;28;20167;-77
2022/12/26 13:19:52;;;;;;;2.73;0.90;;;9.80;99.90;;;;;;5076395;28;20567;-77
2022/12/26 13:25:24;;;;;;;3.50;1.03;;;9.70;99.90;;;;;;5076437;28;20158;-77
2022/12/26 13:27:51;;;;;;;1.67;0.70;;;9.70;99.90;;;;;;5076487;28;20199;-77
2022/12/26 13:30:17;;;;;;;2.90;1.17;;;9.70;99.90;;;;;;5076155;28;20190;-77
2022/12/26 13:32:43;;;;;;;6.07;1.27;;;9.70;99.90;;;;;;5076501;28;20169;-77
2022/12/26 13:35:54;;;;;;;5.13;1.30;;;9.70;99.90;;;;;;5076417;28;20542;-77
2022/12/26 13:38:22;;;;;;;2.17;1.10;;;9.70;99.90;;;;;;5054933;28;20186;-77
2022/12/26 13:43:53;;;;;;;4.10;1.30;;;9.70;99.90;;;;;;5058268;28;20179;-77
2022/12/26 13:43:59;;;;;;;3.80;1.40;;;9.60;99.90;;;;;;5075893;28;20158;-77
2022/12/26 13:46:37;;;;;;;4.13;1.30;;;9.70;99.90;;;;;;5075883;28;20193;-77
2022/12/26 13:49:03;;;;;;;6.07;1.70;;;9.60;99.90;;;;;;5075827;28;20244;-77
2022/12/26 13:51:42;;;;;;;2.67;1.10;;;9.60;99.90;;;;;;5057944;28;20646;-77
2022/12/26 13:54:12;;;;;;;3.50;1.50;;;9.50;99.90;;;;;;5057831;28;20185;-76
2022/12/26 13:56:40;;;;;;;5.50;1.50;;;9.50;99.90;;;;;;5075500;28;20258;-77
2022/12/26 13:59:06;;;;;;;5.40;1.60;;;9.50;99.90;;;;;;5075842;28;20287;-77
2022/12/26 14:02:11;;;;;;;4.07;1.23;;;9.50;99.90;;;;;;5075614;28;20202;-77
2022/12/26 14:05:04;;;;;;;3.80;1.03;;;9.40;99.90;;;;;;5057725;28;20179;-76
2022/12/26 14:07:34;;;;;;;4.43;1.60;;;9.40;99.90;;;;;;5075499;28;20194;-77
2022/12/26 14:10:20;;;;;;;4.43;1.63;;;9.30;99.90;;;;;;5075805;28;20191;-77
2022/12/26 14:13:04;;;;;;;4.67;1.90;;;9.30;99.90;;;;;;5057821;28;20540;-77
2022/12/26 14:15:39;;;;;;;4.70;1.80;;;9.30;99.90;;;;;;5076021;28;20251;-77
2022/12/26 14:18:53;;;;;;;8.57;2.20;;;9.30;99.90;;;;;;5075285;28;20174;-77
2022/12/26 14:21:49;;;;;;;5.07;1.97;;;9.20;99.90;;;;;;4958046;28;20178;-77
2022/12/26 14:24:29;;;;;;;3.53;1.73;;;9.20;99.90;;;;;;5057399;28;20260;-77
2022/12/26 14:27:09;;;;;;;8.60;2.40;;;9.20;99.90;;;;;;5075422;28;20186;-77
2022/12/26 14:29:43;;;;;;;9.57;2.27;;;9.20;99.90;;;;;;5075072;28;20198;-77
2022/12/26 14:32:31;;;;;;;6.80;2.40;;;9.10;99.90;;;;;;5057118;28;20175;-77
2022/12/26 14:35:34;;;;;;;7.23;2.63;;;9.00;99.90;;;;;;5057141;28;20204;-77
2022/12/26 14:38:47;;;;;;;11.07;2.43;;;8.90;99.90;;;;;;5075131;28;20559;-77
2022/12/26 14:44:19;;;;;;;7.27;2.53;;;8.90;99.90;;;;;;5075369;28;20163;-76
2022/12/26 14:46:47;;;;;;;6.23;2.63;;;8.80;99.90;;;;;;5074712;28;20234;-77
2022/12/26 14:49:35;;;;;;;8.67;2.20;;;8.80;99.90;;;;;;5074954;28;20606;-77
2022/12/26 14:52:23;;;;;;;6.83;2.60;;;8.70;99.90;;;;;;5074939;28;20152;-76
2022/12/26 14:54:53;;;;;;;7.07;2.20;;;8.60;99.90;;;;;;5074574;28;20267;-77
2022/12/26 14:57:42;;;;;;;9.07;2.30;;;8.60;99.90;;;;;;5074678;28;20198;-76
2022/12/26 15:00:20;;;;;;;4.17;2.10;;;8.60;99.90;;;;;;5056570;28;20561;-77
2022/12/26 15:02:56;;;;;;;6.67;2.37;;;8.50;99.90;;;;;;5056546;28;20538;-77
2022/12/26 15:05:26;;;;;;;6.20;1.63;;;8.50;99.90;;;;;;5056814;28;20535;-77
2022/12/26 15:08:07;;;;;;;7.47;2.40;;;8.50;99.90;;;;;;5074280;28;20281;-77
2022/12/26 15:10:45;;;;;;;4.07;2.00;;;8.40;99.90;;;;;;5056389;28;20195;-77
2022/12/26 15:13:41;;;;;;;5.53;2.13;;;8.40;99.90;;;;;;5074302;28;20162;-77
2022/12/26 15:16:32;;;;;;;3.77;1.70;;;8.40;99.90;;;;;;5074295;28;20249;-77
2022/12/26 15:19:25;;;;;;;4.70;2.03;;;8.30;99.90;;;;;;5074358;28;20190;-77
2022/12/26 15:22:15;;;;;;;4.57;2.30;;;8.30;99.90;;;;;;5074454;28;20155;-77
2022/12/26 15:25:14;;;;;;;10.67;2.40;;;8.20;99.90;;;;;;5074099;28;20160;-77
2022/12/26 15:28:04;;;;;;;4.03;1.80;;;8.10;99.90;;;;;;5056059;28;20689;-77
2022/12/26 15:31:05;;;;;;;5.83;1.80;;;8.10;99.90;;;;;;5073976;28;20191;-77
2022/12/26 15:33:49;;;;;;;5.37;1.50;;;8.10;99.90;;;;;;5055244;28;20163;-76
2022/12/26 15:36:50;;;;;;;6.83;1.57;;;8.00;99.90;;;;;;5073878;28;20643;-76